EXS3HB LEGE-EGBB
Flight info
| Callsign | EXS3HB |
|---|---|
| Flight time | 1h 39m |
| Altitude | 34000 |
| Route | GEANT DCT ROCAN DCT TOU DCT TUPAR UN861 DIKRO UM184 HEMEL |
| Aircraft | B738/M-SDE2E3FGHIRWXY/LB1 |
Departure
| Time | 2026-05-04 10:30 |
|---|---|
| Airport | Girona-Costa Brava Airport (LEGE) |
Arrival
| Time | 2026-05-04 12:09 |
|---|---|
| Airport | Birmingham Airport (EGBB) |
| Time | Latitude | Longitude | Altitude | Speed | Heading |
|---|---|---|---|---|---|
| 2026-05-04 10:02 | 41.89813 | 2.76463 | 418 ft | 0 kts | 105° |
| 2026-05-04 10:21 | 41.89817 | 2.76437 | 413 ft | 4 kts | 91° |
| 2026-05-04 10:21 | 41.89812 | 2.76403 | 417 ft | 4 kts | 59° |
| 2026-05-04 10:22 | 41.89784 | 2.76373 | 418 ft | 0 kts | 16° |
| 2026-05-04 10:25 | 41.89941 | 2.76224 | 418 ft | 5 kts | 5° |
| 2026-05-04 10:25 | 41.89976 | 2.76242 | 423 ft | 6 kts | 21° |
| 2026-05-04 10:25 | 41.90029 | 2.76262 | 422 ft | 12 kts | 15° |
| 2026-05-04 10:25 | 41.90146 | 2.76306 | 418 ft | 21 kts | 17° |
| 2026-05-04 10:26 | 41.90295 | 2.76362 | 419 ft | 22 kts | 14° |
| 2026-05-04 10:26 | 41.90440 | 2.76417 | 427 ft | 21 kts | 15° |
| 2026-05-04 10:26 | 41.90581 | 2.76470 | 426 ft | 21 kts | 18° |
| 2026-05-04 10:26 | 41.90719 | 2.76523 | 449 ft | 20 kts | 16° |
| 2026-05-04 10:27 | 41.90852 | 2.76574 | 456 ft | 20 kts | 15° |
| 2026-05-04 10:27 | 41.90981 | 2.76622 | 462 ft | 19 kts | 15° |
| 2026-05-04 10:27 | 41.91105 | 2.76668 | 461 ft | 18 kts | 18° |
| 2026-05-04 10:27 | 41.91226 | 2.76714 | 464 ft | 18 kts | 15° |
| 2026-05-04 10:28 | 41.91342 | 2.76761 | 466 ft | 17 kts | 15° |
| 2026-05-04 10:28 | 41.91451 | 2.76735 | 470 ft | 16 kts | 329° |
| 2026-05-04 10:28 | 41.91527 | 2.76665 | 473 ft | 8 kts | 306° |
| 2026-05-04 10:28 | 41.91521 | 2.76600 | 471 ft | 9 kts | 222° |
| 2026-05-04 10:29 | 41.91439 | 2.76565 | 477 ft | 27 kts | 196° |
| 2026-05-04 10:29 | 41.91005 | 2.76402 | 468 ft | 100 kts | 195° |
| 2026-05-04 10:29 | 41.90132 | 2.76081 | 473 ft | 154 kts | 192° |
| 2026-05-04 10:29 | 41.89239 | 2.75726 | 1036 ft | 152 kts | 195° |
| 2026-05-04 10:30 | 41.88186 | 2.75306 | 1610 ft | 163 kts | 195° |
| 2026-05-04 10:30 | 41.87104 | 2.74898 | 2369 ft | 161 kts | 197° |
| 2026-05-04 10:30 | 41.86046 | 2.74501 | 3264 ft | 154 kts | 197° |
| 2026-05-04 10:30 | 41.85015 | 2.74126 | 4046 ft | 155 kts | 198° |
| 2026-05-04 10:31 | 41.83889 | 2.73699 | 4467 ft | 183 kts | 198° |
| 2026-05-04 10:31 | 41.82665 | 2.72979 | 4663 ft | 208 kts | 221° |
| 2026-05-04 10:32 | 41.88608 | 2.65706 | 8802 ft | 273 kts | 347° |
| 2026-05-04 10:33 | 41.90535 | 2.65246 | 9372 ft | 292 kts | 347° |
| 2026-05-04 10:33 | 41.92629 | 2.64712 | 9601 ft | 321 kts | 347° |
| 2026-05-04 10:33 | 41.94911 | 2.64105 | 9817 ft | 348 kts | 347° |
| 2026-05-04 10:33 | 41.97365 | 2.63435 | 10017 ft | 373 kts | 347° |
| 2026-05-04 10:34 | 41.99966 | 2.62714 | 10423 ft | 387 kts | 346° |
| 2026-05-04 10:34 | 42.02621 | 2.61972 | 11129 ft | 392 kts | 346° |
| 2026-05-04 10:34 | 42.05299 | 2.61219 | 11878 ft | 395 kts | 346° |
| 2026-05-04 10:34 | 42.07981 | 2.60356 | 12577 ft | 399 kts | 338° |
| 2026-05-04 10:35 | 42.10385 | 2.58537 | 13347 ft | 397 kts | 319° |
| 2026-05-04 10:35 | 42.12503 | 2.56145 | 14143 ft | 399 kts | 316° |
| 2026-05-04 10:35 | 42.14620 | 2.53696 | 14877 ft | 403 kts | 316° |
| 2026-05-04 10:35 | 42.16766 | 2.51243 | 15673 ft | 406 kts | 317° |
| 2026-05-04 10:36 | 42.18943 | 2.48791 | 16475 ft | 409 kts | 317° |
| 2026-05-04 10:36 | 42.21138 | 2.46335 | 17253 ft | 412 kts | 317° |
| 2026-05-04 10:36 | 42.23359 | 2.43862 | 17954 ft | 416 kts | 317° |
| 2026-05-04 10:36 | 42.25606 | 2.41364 | 18604 ft | 421 kts | 317° |
| 2026-05-04 10:37 | 42.27870 | 2.38847 | 19241 ft | 423 kts | 317° |
| 2026-05-04 10:37 | 42.30152 | 2.36306 | 19873 ft | 426 kts | 316° |
| 2026-05-04 10:37 | 42.32450 | 2.33743 | 20497 ft | 430 kts | 316° |
| 2026-05-04 10:37 | 42.34758 | 2.31165 | 21073 ft | 433 kts | 316° |
| 2026-05-04 10:39 | 42.48985 | 2.15246 | 24240 ft | 450 kts | 314° |
| 2026-05-04 10:39 | 42.51405 | 2.12543 | 24669 ft | 452 kts | 314° |
| 2026-05-04 10:39 | 42.53813 | 2.09850 | 25046 ft | 456 kts | 314° |
| 2026-05-04 10:40 | 42.56264 | 2.07103 | 25444 ft | 459 kts | 314° |
| 2026-05-04 10:40 | 42.58726 | 2.04342 | 25829 ft | 460 kts | 314° |
| 2026-05-04 10:40 | 42.61198 | 2.01567 | 26230 ft | 462 kts | 314° |
| 2026-05-04 10:40 | 42.63676 | 1.98782 | 26643 ft | 463 kts | 314° |
| 2026-05-04 10:41 | 42.66162 | 1.96018 | 27164 ft | 464 kts | 316° |
| 2026-05-04 10:41 | 42.68870 | 1.93593 | 27773 ft | 469 kts | 325° |
| 2026-05-04 10:41 | 42.71815 | 1.91678 | 28436 ft | 469 kts | 329° |
| 2026-05-04 10:41 | 42.74791 | 1.89866 | 28955 ft | 470 kts | 329° |
| 2026-05-04 10:42 | 42.77786 | 1.88064 | 29440 ft | 471 kts | 329° |
| 2026-05-04 10:42 | 42.80784 | 1.86253 | 29976 ft | 470 kts | 329° |
| 2026-05-04 10:42 | 42.83767 | 1.84433 | 30386 ft | 470 kts | 329° |
| 2026-05-04 10:42 | 42.86745 | 1.82595 | 30776 ft | 469 kts | 328° |
| 2026-05-04 10:43 | 42.89700 | 1.80757 | 31367 ft | 465 kts | 328° |
| 2026-05-04 10:44 | 43.10351 | 1.67784 | 34114 ft | 466 kts | 327° |
| 2026-05-04 10:45 | 43.13292 | 1.65928 | 34458 ft | 465 kts | 327° |
| 2026-05-04 10:45 | 43.16233 | 1.64073 | 34873 ft | 463 kts | 327° |
| 2026-05-04 10:45 | 43.19154 | 1.62229 | 35260 ft | 462 kts | 328° |
| 2026-05-04 10:45 | 43.22070 | 1.60385 | 35605 ft | 461 kts | 328° |
| 2026-05-04 10:46 | 43.24974 | 1.58546 | 35938 ft | 461 kts | 328° |
| 2026-05-04 10:46 | 43.27881 | 1.56702 | 36287 ft | 460 kts | 328° |
| 2026-05-04 10:46 | 43.30789 | 1.54856 | 36633 ft | 459 kts | 328° |
| 2026-05-04 10:46 | 43.33684 | 1.53017 | 36970 ft | 459 kts | 328° |
| 2026-05-04 10:47 | 43.36578 | 1.51177 | 37312 ft | 458 kts | 329° |
| 2026-05-04 10:47 | 43.39459 | 1.49343 | 37646 ft | 457 kts | 329° |
| 2026-05-04 10:47 | 43.42346 | 1.47503 | 37910 ft | 458 kts | 329° |
| 2026-05-04 10:49 | 43.64488 | 1.33326 | 37975 ft | 455 kts | 329° |
| 2026-05-04 10:50 | 43.70211 | 1.29618 | 37966 ft | 454 kts | 328° |
| 2026-05-04 10:52 | 43.92813 | 1.14111 | 37966 ft | 456 kts | 328° |
| 2026-05-04 10:52 | 43.98505 | 1.10197 | 37966 ft | 457 kts | 328° |
| 2026-05-04 10:54 | 44.21412 | 0.94366 | 37969 ft | 461 kts | 328° |
| 2026-05-04 10:56 | 44.44344 | 0.78378 | 37952 ft | 460 kts | 328° |
| 2026-05-04 10:57 | 44.50057 | 0.74372 | 37954 ft | 459 kts | 328° |
| 2026-05-04 10:57 | 44.55761 | 0.70364 | 37957 ft | 458 kts | 327° |
| 2026-05-04 10:58 | 44.61464 | 0.66347 | 37948 ft | 459 kts | 327° |
| 2026-05-04 10:58 | 44.67163 | 0.62324 | 37943 ft | 459 kts | 327° |
| 2026-05-04 10:59 | 44.72866 | 0.58290 | 37944 ft | 459 kts | 327° |
| 2026-05-04 10:59 | 44.78565 | 0.54250 | 37942 ft | 459 kts | 327° |
| 2026-05-04 11:00 | 44.84238 | 0.50218 | 37942 ft | 460 kts | 327° |
| 2026-05-04 11:02 | 45.07111 | 0.33876 | 37953 ft | 461 kts | 327° |
| 2026-05-04 11:05 | 45.50062 | 0.02785 | 37957 ft | 462 kts | 327° |
| 2026-05-04 11:06 | 45.55787 | -0.01400 | 37944 ft | 463 kts | 327° |
| 2026-05-04 11:06 | 45.61518 | -0.05599 | 37951 ft | 462 kts | 327° |
| 2026-05-04 11:10 | 46.01645 | -0.35274 | 37959 ft | 465 kts | 328° |
| 2026-05-04 11:12 | 46.24584 | -0.52458 | 37961 ft | 464 kts | 328° |
| 2026-05-04 11:12 | 46.30305 | -0.56769 | 37963 ft | 463 kts | 328° |
| 2026-05-04 11:13 | 46.36021 | -0.61087 | 37962 ft | 463 kts | 328° |
| 2026-05-04 11:13 | 46.41786 | -0.65254 | 37963 ft | 467 kts | 334° |
| 2026-05-04 11:14 | 46.48119 | -0.67422 | 37973 ft | 475 kts | 349° |
| 2026-05-04 11:16 | 46.74469 | -0.71596 | 37966 ft | 476 kts | 350° |
| 2026-05-04 11:16 | 46.81051 | -0.72717 | 37969 ft | 478 kts | 350° |
| 2026-05-04 11:17 | 46.87677 | -0.73845 | 37960 ft | 479 kts | 350° |
| 2026-05-04 11:19 | 47.14042 | -0.78343 | 37965 ft | 475 kts | 350° |
| 2026-05-04 11:19 | 47.20595 | -0.79469 | 37964 ft | 474 kts | 350° |
| 2026-05-04 11:20 | 47.27141 | -0.80596 | 37964 ft | 473 kts | 350° |
| 2026-05-04 11:20 | 47.33688 | -0.81727 | 37965 ft | 473 kts | 350° |
| 2026-05-04 11:22 | 47.59880 | -0.86073 | 37965 ft | 475 kts | 353° |
| 2026-05-04 11:23 | 47.66468 | -0.86818 | 37961 ft | 475 kts | 353° |
| 2026-05-04 11:25 | 47.89549 | -0.89580 | 37968 ft | 476 kts | 352° |
| 2026-05-04 11:25 | 47.96153 | -0.90397 | 37963 ft | 476 kts | 353° |
| 2026-05-04 11:27 | 48.25781 | -0.94076 | 37965 ft | 475 kts | 353° |
| 2026-05-04 11:28 | 48.32345 | -0.94897 | 37974 ft | 474 kts | 353° |
| 2026-05-04 11:28 | 48.38922 | -0.95721 | 37968 ft | 474 kts | 353° |
| 2026-05-04 11:29 | 48.45489 | -0.96547 | 37972 ft | 473 kts | 353° |
| 2026-05-04 11:29 | 48.52040 | -0.97373 | 37975 ft | 473 kts | 353° |
| 2026-05-04 11:33 | 48.97882 | -1.03211 | 37992 ft | 472 kts | 353° |
| 2026-05-04 11:33 | 49.04433 | -1.04054 | 37989 ft | 472 kts | 353° |
| 2026-05-04 11:34 | 49.10985 | -1.04901 | 38014 ft | 472 kts | 354° |
| 2026-05-04 11:34 | 49.17517 | -1.05746 | 37998 ft | 471 kts | 354° |
| 2026-05-04 11:35 | 49.22945 | -1.06449 | 37986 ft | 470 kts | 354° |
| 2026-05-04 11:35 | 49.29448 | -1.07294 | 38010 ft | 468 kts | 354° |
| 2026-05-04 11:36 | 49.35941 | -1.08141 | 38005 ft | 467 kts | 354° |
| 2026-05-04 11:36 | 49.42411 | -1.08987 | 38001 ft | 466 kts | 354° |
| 2026-05-04 11:37 | 49.48858 | -1.09832 | 38011 ft | 465 kts | 354° |
| 2026-05-04 11:37 | 49.55297 | -1.10678 | 38028 ft | 464 kts | 354° |
| 2026-05-04 11:38 | 49.61749 | -1.10836 | 38026 ft | 465 kts | 4° |
| 2026-05-04 11:38 | 49.68182 | -1.09837 | 38016 ft | 465 kts | 5° |
| 2026-05-04 11:39 | 49.74623 | -1.08857 | 38018 ft | 465 kts | 5° |
| 2026-05-04 11:41 | 49.97247 | -1.05777 | 38020 ft | 467 kts | 4° |
| 2026-05-04 11:41 | 50.03720 | -1.04886 | 38018 ft | 467 kts | 5° |
| 2026-05-04 11:42 | 50.10146 | -1.03983 | 38015 ft | 467 kts | 5° |
| 2026-05-04 11:42 | 50.16621 | -1.03071 | 38017 ft | 467 kts | 5° |
| 2026-05-04 11:43 | 50.23099 | -1.02157 | 38017 ft | 467 kts | 5° |
| 2026-05-04 11:43 | 50.29559 | -1.01244 | 38020 ft | 467 kts | 5° |
| 2026-05-04 11:44 | 50.36023 | -1.00331 | 38017 ft | 466 kts | 5° |
| 2026-05-04 11:44 | 50.42481 | -0.99429 | 38019 ft | 465 kts | 5° |
| 2026-05-04 11:45 | 50.48921 | -0.98529 | 38017 ft | 464 kts | 5° |
| 2026-05-04 11:45 | 50.55349 | -0.97626 | 38016 ft | 463 kts | 5° |
| 2026-05-04 11:46 | 50.61760 | -0.96722 | 38016 ft | 462 kts | 5° |
| 2026-05-04 11:46 | 50.68153 | -0.95819 | 38014 ft | 461 kts | 5° |
| 2026-05-04 11:47 | 50.74552 | -0.94898 | 38014 ft | 461 kts | 5° |
| 2026-05-04 11:47 | 50.80923 | -0.93932 | 38011 ft | 460 kts | 8° |
| 2026-05-04 11:48 | 50.87070 | -0.91434 | 38015 ft | 459 kts | 18° |
| 2026-05-04 11:48 | 50.93112 | -0.88199 | 38011 ft | 459 kts | 19° |
| 2026-05-04 11:49 | 50.99180 | -0.84953 | 38030 ft | 460 kts | 19° |
| 2026-05-04 11:49 | 51.05292 | -0.81748 | 38019 ft | 461 kts | 18° |
| 2026-05-04 11:50 | 51.11399 | -0.78567 | 38021 ft | 461 kts | 18° |
| 2026-05-04 11:50 | 51.17507 | -0.75382 | 38012 ft | 461 kts | 18° |
| 2026-05-04 11:51 | 51.23600 | -0.72193 | 37840 ft | 463 kts | 18° |
| 2026-05-04 11:51 | 51.26679 | -0.70577 | 37108 ft | 467 kts | 18° |
| 2026-05-04 11:51 | 51.29808 | -0.68933 | 36467 ft | 464 kts | 18° |
| 2026-05-04 11:51 | 51.32861 | -0.67326 | 35850 ft | 461 kts | 18° |
| 2026-05-04 11:52 | 51.35862 | -0.65744 | 35241 ft | 459 kts | 18° |
| 2026-05-04 11:52 | 51.38873 | -0.64155 | 34668 ft | 459 kts | 18° |
| 2026-05-04 11:52 | 51.41907 | -0.62551 | 34094 ft | 457 kts | 18° |
| 2026-05-04 11:52 | 51.44931 | -0.60951 | 33410 ft | 460 kts | 18° |
| 2026-05-04 11:53 | 51.47995 | -0.59327 | 32735 ft | 466 kts | 18° |
| 2026-05-04 11:53 | 51.51099 | -0.57679 | 32076 ft | 473 kts | 18° |
| 2026-05-04 11:53 | 51.54228 | -0.56016 | 31448 ft | 477 kts | 18° |
| 2026-05-04 11:53 | 51.57429 | -0.54312 | 30784 ft | 479 kts | 18° |
| 2026-05-04 11:55 | 51.79734 | -0.43670 | 26126 ft | 473 kts | 355° |
| 2026-05-04 11:55 | 51.82943 | -0.44570 | 25516 ft | 468 kts | 341° |
| 2026-05-04 11:56 | 51.85889 | -0.46741 | 24909 ft | 463 kts | 327° |
| 2026-05-04 11:56 | 51.88595 | -0.49514 | 24322 ft | 460 kts | 325° |
| 2026-05-04 11:56 | 51.91289 | -0.52304 | 23728 ft | 458 kts | 326° |
| 2026-05-04 11:56 | 51.93986 | -0.55013 | 23054 ft | 455 kts | 327° |
| 2026-05-04 11:57 | 51.96685 | -0.57664 | 22383 ft | 452 kts | 327° |
| 2026-05-04 11:57 | 51.99380 | -0.60289 | 21715 ft | 447 kts | 327° |
| 2026-05-04 11:57 | 52.02024 | -0.62864 | 21059 ft | 442 kts | 327° |
| 2026-05-04 11:57 | 52.04647 | -0.65426 | 20418 ft | 437 kts | 327° |
| 2026-05-04 11:58 | 52.07241 | -0.67967 | 19801 ft | 433 kts | 327° |
| 2026-05-04 11:58 | 52.09808 | -0.70489 | 19144 ft | 428 kts | 327° |
| 2026-05-04 11:58 | 52.12320 | -0.72963 | 18342 ft | 414 kts | 328° |
| 2026-05-04 11:58 | 52.14742 | -0.75350 | 17449 ft | 399 kts | 327° |
| 2026-05-04 11:59 | 52.17072 | -0.77649 | 16590 ft | 386 kts | 327° |
| 2026-05-04 11:59 | 52.19341 | -0.79891 | 15753 ft | 376 kts | 327° |
| 2026-05-04 11:59 | 52.21547 | -0.82074 | 14933 ft | 367 kts | 327° |
| 2026-05-04 11:59 | 52.23576 | -0.84482 | 14101 ft | 357 kts | 312° |
| 2026-05-04 12:00 | 52.24965 | -0.87745 | 13273 ft | 347 kts | 294° |
| 2026-05-04 12:00 | 52.25691 | -0.91446 | 12434 ft | 338 kts | 282° |
| 2026-05-04 12:00 | 52.26204 | -0.95157 | 11595 ft | 333 kts | 281° |
| 2026-05-04 12:00 | 52.26679 | -0.98846 | 10772 ft | 329 kts | 280° |
| 2026-05-04 12:01 | 52.27147 | -1.02474 | 9976 ft | 325 kts | 281° |
| 2026-05-04 12:01 | 52.27616 | -1.06052 | 9112 ft | 321 kts | 281° |
| 2026-05-04 12:02 | 52.30581 | -1.26592 | 4579 ft | 289 kts | 283° |
| 2026-05-04 12:03 | 52.31016 | -1.29747 | 4059 ft | 281 kts | 283° |
| 2026-05-04 12:03 | 52.31426 | -1.32817 | 3547 ft | 274 kts | 283° |
| 2026-05-04 12:03 | 52.31814 | -1.35831 | 3120 ft | 266 kts | 282° |
| 2026-05-04 12:03 | 52.32172 | -1.38689 | 3013 ft | 246 kts | 282° |
| 2026-05-04 12:04 | 52.32497 | -1.41324 | 2988 ft | 227 kts | 282° |
| 2026-05-04 12:04 | 52.32791 | -1.43761 | 2986 ft | 213 kts | 282° |
| 2026-05-04 12:04 | 52.33077 | -1.46142 | 2998 ft | 215 kts | 282° |
| 2026-05-04 12:04 | 52.33367 | -1.48555 | 2995 ft | 215 kts | 282° |
| 2026-05-04 12:05 | 52.33651 | -1.50944 | 3000 ft | 214 kts | 282° |
| 2026-05-04 12:05 | 52.33937 | -1.53326 | 3006 ft | 213 kts | 282° |
| 2026-05-04 12:05 | 52.34213 | -1.55626 | 3005 ft | 203 kts | 282° |
| 2026-05-04 12:05 | 52.34476 | -1.57857 | 3008 ft | 194 kts | 282° |
| 2026-05-04 12:06 | 52.34724 | -1.59975 | 3014 ft | 191 kts | 282° |
| 2026-05-04 12:06 | 52.35005 | -1.62099 | 2825 ft | 197 kts | 291° |
| 2026-05-04 12:06 | 52.35867 | -1.63774 | 2541 ft | 191 kts | 325° |
| 2026-05-04 12:06 | 52.36883 | -1.65152 | 2250 ft | 186 kts | 320° |
| 2026-05-04 12:07 | 52.37862 | -1.66433 | 2007 ft | 173 kts | 328° |
| 2026-05-04 12:07 | 52.38811 | -1.67479 | 1786 ft | 155 kts | 329° |
| 2026-05-04 12:07 | 52.39672 | -1.68433 | 1557 ft | 150 kts | 329° |
| 2026-05-04 12:07 | 52.40525 | -1.69380 | 1354 ft | 147 kts | 329° |
| 2026-05-04 12:08 | 52.41364 | -1.70309 | 1145 ft | 144 kts | 328° |
| 2026-05-04 12:08 | 52.42197 | -1.71245 | 940 ft | 146 kts | 329° |
| 2026-05-04 12:08 | 52.43036 | -1.72193 | 746 ft | 147 kts | 327° |
| 2026-05-04 12:08 | 52.43870 | -1.73137 | 520 ft | 144 kts | 329° |
| 2026-05-04 12:09 | 52.44688 | -1.74023 | 363 ft | 138 kts | 328° |
| 2026-05-04 12:09 | 52.45399 | -1.74818 | 321 ft | 105 kts | 327° |
| 2026-05-04 12:09 | 52.45879 | -1.75349 | 317 ft | 62 kts | 326° |
| 2026-05-04 12:09 | 52.46074 | -1.75567 | 309 ft | 32 kts | 325° |
| 2026-05-04 12:10 | 52.46165 | -1.75622 | 308 ft | 2 kts | 20° |
| 2026-05-04 12:10 | 52.46165 | -1.75616 | 309 ft | 1 kts | 59° |
| 2026-05-04 12:10 | 52.46176 | -1.75580 | 309 ft | 7 kts | 64° |
| 2026-05-04 12:10 | 52.46215 | -1.75463 | 305 ft | 15 kts | 63° |
| 2026-05-04 12:11 | 52.46203 | -1.75378 | 301 ft | 6 kts | 141° |
| 2026-05-04 12:11 | 52.46164 | -1.75340 | 302 ft | 7 kts | 147° |
| 2026-05-04 12:11 | 52.46123 | -1.75294 | 303 ft | 7 kts | 145° |
| 2026-05-04 12:11 | 52.46083 | -1.75248 | 304 ft | 7 kts | 145° |
| 2026-05-04 12:12 | 52.46043 | -1.75204 | 304 ft | 7 kts | 146° |
| 2026-05-04 12:12 | 52.46004 | -1.75160 | 304 ft | 7 kts | 146° |
| 2026-05-04 12:12 | 52.45964 | -1.75116 | 305 ft | 7 kts | 146° |
| 2026-05-04 12:12 | 52.45925 | -1.75073 | 307 ft | 7 kts | 146° |
| 2026-05-04 12:13 | 52.45887 | -1.75031 | 305 ft | 7 kts | 146° |
| 2026-05-04 12:14 | 52.45415 | -1.74373 | 322 ft | 13 kts | 116° |
| 2026-05-04 12:15 | 52.45374 | -1.74245 | 322 ft | 12 kts | 117° |
| 2026-05-04 12:15 | 52.45336 | -1.74120 | 323 ft | 12 kts | 116° |
| 2026-05-04 12:15 | 52.45298 | -1.74000 | 322 ft | 12 kts | 129° |
| 2026-05-04 12:15 | 52.45233 | -1.73923 | 322 ft | 11 kts | 146° |
| 2026-05-04 12:16 | 52.45169 | -1.73852 | 320 ft | 11 kts | 146° |
| 2026-05-04 12:16 | 52.45107 | -1.73783 | 322 ft | 11 kts | 148° |
| 2026-05-04 12:16 | 52.45039 | -1.73744 | 321 ft | 10 kts | 159° |
| 2026-05-04 12:16 | 52.44980 | -1.73683 | 323 ft | 10 kts | 146° |
| 2026-05-04 12:17 | 52.44924 | -1.73621 | 322 ft | 10 kts | 145° |
| 2026-05-04 12:17 | 52.44900 | -1.73527 | 323 ft | 9 kts | 83° |
| 2026-05-04 12:17 | 52.44930 | -1.73437 | 323 ft | 9 kts | 56° |
| 2026-05-04 12:17 | 52.44964 | -1.73355 | 322 ft | 9 kts | 56° |
| 2026-05-04 12:18 | 52.44997 | -1.73274 | 323 ft | 8 kts | 55° |
| 2026-05-04 12:18 | 52.45013 | -1.73237 | 323 ft | 3 kts | 54° |
| 2026-05-04 12:18 | 52.45029 | -1.73234 | 322 ft | 2 kts | 340° |
| 2026-05-04 12:18 | 52.45043 | -1.73248 | 323 ft | 2 kts | 328° |
| 2026-05-04 12:19 | 52.45054 | -1.73260 | 323 ft | 2 kts | 327° |
| 2026-05-04 12:19 | 52.45060 | -1.73267 | 323 ft | 0 kts | 326° |